Juzhno-Kuril'Sk, Russia
Current Conditions -  °F | °C
As of 4:00 PM on Thursday 27 Nov 2014 (Local Time) from RJCK Reporting Station
Few Clouds Few Clouds  
Wind Chill: 40°   Ceiling: Unl
Heat Index: 45°   Visibility: 6mi
Dew Point: 32°   Wind: 8mph
Humidity: 61%   Direction: 190°S
Pressure: 30.12"   Gusts: NA
Location:  44.02°N, 145.87°E
Report Text: RJCK 270500Z 19007KT 160V230 9999 FEW025 07/00 Q1020
Loading
Personal Weather Stations






























Interactive Weather Map New forecast layout! Learn more

10-Day Weather Forecast

Advertisements
Track Severe Weather on mobile